Time,TemperatureF,DewpointF,PressureIn,WindDirection,WindDirectionDegrees,WindSpeedMPH,WindSpeedGustMPH,Humidity,HourlyPrecipIn,Conditions,Clouds,dailyrainin,SolarRadiationWatts/m^2,SoftwareType,DateUTC
2013-10-25 00:24:00,63.0,59.0,-100.00,North,3,5.0,-999.0,85,0.00,,,-99.99,2.300000,,2013-10-25 04:24:00,
2013-10-25 00:54:00,63.0,59.0,-100.00,North,1,6.0,-999.0,84,0.00,,,-99.99,2.200000,,2013-10-25 04:54:00,
2013-10-25 01:21:00,63.0,58.0,-100.00,North,356,5.0,-999.0,85,0.00,,,-99.99,2.200000,,2013-10-25 05:21:00,
2013-10-25 01:51:00,62.0,58.0,-100.00,North,353,5.0,-999.0,85,0.00,,,-99.99,2.100000,,2013-10-25 05:51:00,
2013-10-25 02:21:00,62.0,58.0,-100.00,NNW,347,6.0,-999.0,86,0.00,,,-99.99,2.100000,,2013-10-25 06:21:00,
2013-10-25 02:51:00,61.0,58.0,-100.00,North,353,6.0,-999.0,87,0.00,,,-99.99,2.000000,,2013-10-25 06:51:00,
2013-10-25 03:21:00,62.0,58.0,-100.00,North,355,6.0,-999.0,86,0.00,,,-99.99,2.000000,,2013-10-25 07:21:00,
2013-10-25 03:51:00,61.0,57.0,-100.00,North,350,6.0,-999.0,87,0.00,,,-99.99,2.000000,,2013-10-25 07:51:00,
2013-10-25 04:21:00,61.0,58.0,-100.00,NNW,345,5.0,-999.0,87,0.00,,,-99.99,2.000000,,2013-10-25 08:21:00,
2013-10-25 04:51:00,61.0,58.0,-100.00,NNW,347,6.0,-999.0,87,0.00,,,-99.99,2.000000,,2013-10-25 08:51:00,
2013-10-25 05:21:00,61.0,57.0,-100.00,NNW,347,5.0,-999.0,87,0.00,,,-99.99,2.000000,,2013-10-25 09:21:00,
2013-10-25 05:52:00,61.0,57.0,-100.00,North,352,5.0,-999.0,88,0.00,,,-99.99,2.000000,,2013-10-25 09:52:00,
2013-10-25 06:22:00,61.0,57.0,-100.00,NNW,345,6.0,-999.0,88,0.00,,,-99.99,1.900000,,2013-10-25 10:22:00,
2013-10-25 06:52:00,60.0,57.0,-100.00,NNW,346,5.0,-999.0,89,0.00,,,-99.99,1.900000,,2013-10-25 10:52:00,
2013-10-25 07:21:00,60.0,57.0,-100.00,North,351,6.0,-999.0,89,0.00,,,-99.99,1.900000,,2013-10-25 11:21:00,
2013-10-25 07:51:00,60.0,57.0,-100.00,NNW,347,6.0,-999.0,90,0.00,,,-99.99,2.600000,,2013-10-25 11:51:00,
2013-10-25 08:21:00,60.0,57.0,-100.00,North,352,5.0,-999.0,90,0.00,,,-99.99,25.799999,,2013-10-25 12:21:00,
2013-10-25 08:51:00,62.0,59.0,-100.00,North,351,5.0,-999.0,89,0.00,,,-99.99,117.900002,,2013-10-25 12:51:00,
2013-10-25 09:21:00,66.0,61.0,-100.00,NNE,19,7.0,-999.0,85,0.00,,,-99.99,224.899994,,2013-10-25 13:21:00,
2013-10-25 09:52:00,68.0,61.0,-100.00,NNE,29,7.0,-999.0,78,0.00,,,-99.99,318.500000,,2013-10-25 13:52:00,
2013-10-25 10:22:00,70.0,61.0,-100.00,NNE,26,9.0,-999.0,72,0.00,,,-99.99,264.200012,,2013-10-25 14:22:00,
2013-10-25 10:52:00,72.0,61.0,-100.00,NNE,28,9.0,-999.0,67,0.00,,,-99.99,489.700012,,2013-10-25 14:52:00,
2013-10-25 11:11:00,74.0,61.0,-100.00,NNE,26,9.0,-999.0,65,0.00,,,-99.99,527.900024,,2013-10-25 15:11:00,
2013-10-25 11:21:00,74.0,61.0,-100.00,NNE,28,10.0,-999.0,62,0.00,,,-99.99,563.400024,,2013-10-25 15:21:00,
2013-10-25 11:53:00,76.0,60.0,-100.00,NNE,27,8.0,-999.0,57,0.00,,,-99.99,622.500000,,2013-10-25 15:53:00,
2013-10-25 12:23:00,77.0,58.0,-100.00,NE,42,9.0,-999.0,52,0.00,,,-99.99,667.599976,,2013-10-25 16:23:00,
2013-10-25 12:53:00,77.0,57.0,-100.00,NE,37,9.0,-999.0,49,0.00,,,-99.99,697.200012,,2013-10-25 16:53:00,
2013-10-25 13:23:00,78.0,54.0,-100.00,NNE,20,9.0,-999.0,43,0.00,,,-99.99,717.000000,,2013-10-25 17:23:00,
2013-10-25 13:52:00,79.0,53.0,-100.00,NE,46,8.0,-999.0,41,0.00,,,-99.99,717.000000,,2013-10-25 17:52:00,
2013-10-25 14:22:00,79.0,53.0,-100.00,NE,38,7.0,-999.0,39,0.00,,,-99.99,701.000000,,2013-10-25 18:22:00,
2013-10-25 14:52:00,79.0,53.0,-100.00,NE,39,8.0,-999.0,40,0.00,,,-99.99,670.299988,,2013-10-25 18:52:00,
2013-10-25 15:22:00,80.0,54.0,-100.00,NE,52,8.0,-999.0,40,0.00,,,-99.99,619.400024,,2013-10-25 19:22:00,
2013-10-25 15:52:00,80.0,54.0,-100.00,NE,45,8.0,-999.0,40,0.00,,,-99.99,558.799988,,2013-10-25 19:52:00,
2013-10-25 16:22:00,80.0,53.0,-100.00,NE,39,8.0,-999.0,39,0.00,,,-99.99,489.200012,,2013-10-25 20:22:00,
2013-10-25 16:52:00,80.0,54.0,-100.00,NNE,32,10.0,-999.0,40,0.00,,,-99.99,405.399994,,2013-10-25 20:52:00,
2013-10-25 17:22:00,79.0,54.0,-100.00,NE,50,8.0,-999.0,41,0.00,,,-99.99,315.200012,,2013-10-25 21:22:00,
2013-10-25 17:54:00,79.0,54.0,-100.00,NE,54,8.0,-999.0,42,0.00,,,-99.99,221.800003,,2013-10-25 21:54:00,
2013-10-25 18:23:00,77.0,54.0,-100.00,NE,49,7.0,-999.0,43,0.00,,,-99.99,131.699997,,2013-10-25 22:23:00,
2013-10-25 18:53:00,75.0,54.0,-100.00,NE,50,5.0,-999.0,47,0.00,,,-99.99,34.599998,,2013-10-25 22:53:00,
2013-10-25 19:23:00,72.0,55.0,-100.00,NE,42,5.0,-999.0,55,0.00,,,-99.99,4.700000,,2013-10-25 23:23:00,
2013-10-25 19:52:00,69.0,57.0,-100.00,NNE,27,4.0,-999.0,67,0.00,,,-99.99,1.600000,,2013-10-25 23:52:00,
2013-10-25 20:22:00,68.0,58.0,-100.00,NNE,18,4.0,-999.0,69,0.00,,,-99.99,1.600000,,2013-10-26 00:22:00,
2013-10-25 20:52:00,67.0,58.0,-100.00,NE,39,6.0,-999.0,71,0.00,,,-99.99,1.600000,,2013-10-26 00:52:00,
2013-10-25 21:22:00,67.0,57.0,-100.00,NE,41,6.0,-999.0,72,0.00,,,-99.99,1.600000,,2013-10-26 01:22:00,
2013-10-25 21:52:00,67.0,59.0,-100.00,NE,40,7.0,-999.0,75,0.00,,,-99.99,1.600000,,2013-10-26 01:52:00,
2013-10-25 22:22:00,65.0,58.0,-100.00,NE,46,6.0,-999.0,77,0.00,,,-99.99,1.600000,,2013-10-26 02:22:00,
2013-10-25 22:52:00,65.0,58.0,-100.00,NE,37,6.0,-999.0,79,0.00,,,-99.99,1.600000,,2013-10-26 02:52:00,
2013-10-25 23:22:00,64.0,58.0,-100.00,NE,41,6.0,-999.0,79,0.00,,,-99.99,1.600000,,2013-10-26 03:22:00,
2013-10-25 23:54:00,64.0,58.0,-100.00,NE,36,5.0,-999.0,81,0.00,,,-99.99,1.600000,,2013-10-26 03:54:00,